WetterOnline ( https://www.wetteronline.de )

Wetter aktuell Ahaus

Aktuelles Wetter: Ahaus (46m)

6-stündlich | Neueste Meldungen
Ortszeit Temperatur Wetter
Sa, 19.06. 2:00 19.2° C wolkenlos
Fr, 18.06. 20:00 29.3° C bewölkt
Fr, 18.06. 14:00 28.8° C fast wolkenlos
Fr, 18.06. 8:00 22.2° C wolkig
Fr, 18.06. 2:00 21.7° C wolkig
Do, 17.06. 20:00 30.6° C leicht bewölkt
Do, 17.06. 14:00 31.6° C wolkenlos
Do, 17.06. 8:00 23.3° C wolkenlos
Ortszeit Temperatur Wetter
Sa, 19.06. 5:30 20.6° C wolkig
Sa, 19.06. 5:20 20.6° C wolkig
Sa, 19.06. 5:10 20.6° C wolkig
Sa, 19.06. 5:00 20.6° C wolkig
Sa, 19.06. 4:50 20.6° C wolkig
Sa, 19.06. 4:40 20.1° C wolkig
Sa, 19.06. 4:30 20.7° C leicht bewölkt
Sa, 19.06. 4:00 19.4° C wolkenlos
Sa, 19.06. 3:30 18.9° C wolkenlos
Sa, 19.06. 3:00 18.9° C wolkenlos
Sa, 19.06. 2:30 18.7° C wolkenlos
Ortszeit Relative Feuchte Sichtweite
Sa, 19.06. 2:00 94% 10 km
Fr, 18.06. 20:00 47% 40 km
Fr, 18.06. 14:00 53% 26 km
Fr, 18.06. 8:00 76% 22 km
Fr, 18.06. 2:00 77% 40 km
Do, 17.06. 20:00 42% 50 km
Do, 17.06. 14:00 38% 45 km
Do, 17.06. 8:00 63% 35 km
Ortszeit Relative Feuchte Sichtweite
Sa, 19.06. 5:30 78% 40 km
Sa, 19.06. 5:20 78% -
Sa, 19.06. 5:10 79% -
Sa, 19.06. 5:00 80% 40 km
Sa, 19.06. 4:50 80% -
Sa, 19.06. 4:40 82% -
Sa, 19.06. 4:30 81% 35 km
Sa, 19.06. 4:00 88% 24 km
Sa, 19.06. 3:30 96% 9 km
Sa, 19.06. 3:00 96% 6 km
Sa, 19.06. 2:30 95% 13 km
Ortszeit Niederschlagsmenge Niederschlagsart
Sa, 19.06. 2:00 0.0 l/m2 in 6 Std. -
Fr, 18.06. 20:00 0.0 l/m2 in 12 Std. -
Fr, 18.06. 14:00 0.0 l/m2 in 6 Std. -
Fr, 18.06. 8:00 0.0 l/m2 in 12 Std. -
Fr, 18.06. 2:00 0.0 l/m2 in 6 Std. -
Do, 17.06. 20:00 0.0 l/m2 in 12 Std. -
Do, 17.06. 14:00 0.0 l/m2 in 6 Std. -
Do, 17.06. 8:00 0.0 l/m2 in 12 Std. -
Ortszeit Niederschlagsmenge Niederschlagsart
Sa, 19.06. 5:30 0.0 l/m2 in 1 Std. -
Sa, 19.06. 5:20 keine Meldung -
Sa, 19.06. 5:10 keine Meldung -
Sa, 19.06. 5:00 0.0 l/m2 in 1 Std. -
Sa, 19.06. 4:50 keine Meldung -
Sa, 19.06. 4:40 keine Meldung -
Sa, 19.06. 4:30 0.0 l/m2 in 1 Std. -
Sa, 19.06. 4:00 0.0 l/m2 in 1 Std. -
Sa, 19.06. 3:30 0.0 l/m2 in 1 Std. -
Sa, 19.06. 3:00 0.0 l/m2 in 1 Std. -
Sa, 19.06. 2:30 0.0 l/m2 in 1 Std. -
Ortszeit Stärke Spitze Richtung
km/h Bft. km/h Grad Sektor
Sa, 19.06. 2:00 4 1 32 150° SO
Fr, 18.06. 20:00 20 4 30 130° SO
Fr, 18.06. 14:00 4 1 29 90° O
Fr, 18.06. 8:00 11 2 22 300° NW
Fr, 18.06. 2:00 4 1 32 10° N
Do, 17.06. 20:00 9 2 35 290° W
Do, 17.06. 14:00 18 3 36 130° SO
Do, 17.06. 8:00 11 2 14 140° SO
Ortszeit Stärke Spitze Richtung
km/h Bft. km/h Grad Sektor
Sa, 19.06. 5:30 14 3 22 210° SW
Sa, 19.06. 5:20 14 3 - 210° SW
Sa, 19.06. 5:10 13 3 - 210° SW
Sa, 19.06. 5:00 11 2 22 200° S
Sa, 19.06. 4:50 11 2 - 200° S
Sa, 19.06. 4:40 7 2 - 200° S
Sa, 19.06. 4:30 9 2 20 220° SW
Sa, 19.06. 4:00 9 2 15 200° S
Sa, 19.06. 3:30 4 1 7 190° S
Sa, 19.06. 3:00 4 1 7 180° S
Sa, 19.06. 2:30 4 1 7 140° SO
Ortszeit Untergrenze Bedeckung Gattung
total tief tief mittel hoch
Sa, 19.06. 2:00 - 0/8 0/8 - - -
Fr, 18.06. 20:00 2700 m 7/8 7/8 - - -
Fr, 18.06. 14:00 3300 m 1/8 1/8 - - -
Fr, 18.06. 8:00 1800 m 5/8 5/8 - - -
Fr, 18.06. 2:00 2100 m 7/8 3/8 - - -
Do, 17.06. 20:00 4200 m 2/8 2/8 - - -
Do, 17.06. 14:00 - 0/8 0/8 - - -
Do, 17.06. 8:00 - 0/8 0/8 - - -
Ortszeit Bedeckungsgrad in Achtel und Wolkenuntergrenze
Sa, 19.06. 5:30 7(8700m) 8(9000m)
Sa, 19.06. 5:20 7(8700m) 8(9000m)
Sa, 19.06. 5:10 8(9000m)
Sa, 19.06. 5:00 8(9000m)
Sa, 19.06. 4:50 8(9000m)
Sa, 19.06. 4:40 7(9000m)
Sa, 19.06. 4:30 3(9000m)
Sa, 19.06. 4:00 keine Wolken
Sa, 19.06. 3:30 keine Wolken
Sa, 19.06. 3:00 keine Wolken
Sa, 19.06. 2:30 keine Wolken
Ortszeit Luftdruck NN (hPa) Tendenz (hPa in 3 Std.)
Sa, 19.06. 2:00 1012 + 1,1
Fr, 18.06. 20:00 1010 - 1,2
Fr, 18.06. 14:00 1012 - 1,3
Fr, 18.06. 8:00 1014 + 1,0
Fr, 18.06. 2:00 1014 + 0,8
Do, 17.06. 20:00 1011 + 0,8
Do, 17.06. 14:00 1010 - 0,6
Do, 17.06. 8:00 1011 + 0,3
Ortszeit Luftdruck NN (hPa) Tendenz (hPa in 3 Std.)
Sa, 19.06. 5:30 1013 + 0,5
Sa, 19.06. 5:20 1013 keine Meldung
Sa, 19.06. 5:10 1013 keine Meldung
Sa, 19.06. 5:00 1013 + 0,4
Sa, 19.06. 4:50 1013 keine Meldung
Sa, 19.06. 4:40 1013 keine Meldung
Sa, 19.06. 4:30 1013 + 0,3
Sa, 19.06. 4:00 1012 + 0,1
Sa, 19.06. 3:30 1013 + 0,2
Sa, 19.06. 3:00 1012 + 0,5
Sa, 19.06. 2:30 1012 + 1,1
Ortszeit Schneehöhe (cm)
Sa, 19.06. 2:00 -
Fr, 18.06. 20:00 -
Fr, 18.06. 14:00 -
Fr, 18.06. 8:00 -
Fr, 18.06. 2:00 -
Do, 17.06. 20:00 -
Do, 17.06. 14:00 -
Do, 17.06. 8:00 -
Ortszeit Schneehöhe (cm)
Sa, 19.06. 5:30 -
Sa, 19.06. 5:20 -
Sa, 19.06. 5:10 -
Sa, 19.06. 5:00 -
Sa, 19.06. 4:50 -
Sa, 19.06. 4:40 -
Sa, 19.06. 4:30 -
Sa, 19.06. 4:00 -
Sa, 19.06. 3:30 -
Sa, 19.06. 3:00 -
Sa, 19.06. 2:30 -
Link zu dieser Seite / Seite empfehlen

Das Wetter in ...